createdAt,value
2018-09-23T00:01:32.781Z,46.10
2018-09-23T00:04:01.280Z,46.60
2018-09-23T00:06:29.924Z,51.27
2018-09-23T00:08:58.352Z,44.00
2018-09-23T00:11:26.956Z,49.20
2018-09-23T00:13:55.426Z,47.83
2018-09-23T00:16:23.951Z,42.40
2018-09-23T00:18:53.663Z,47.53
2018-09-23T00:21:22.125Z,41.33
2018-09-23T00:23:50.620Z,46.23
2018-09-23T00:26:19.085Z,44.73
2018-09-23T00:28:47.558Z,45.17
2018-09-23T00:31:16.686Z,39.40
2018-09-23T00:33:45.231Z,42.70
2018-09-23T00:36:13.694Z,41.77
2018-09-23T00:38:42.301Z,37.73
2018-09-23T00:41:10.792Z,38.47
2018-09-23T00:43:39.248Z,39.20
2018-09-23T00:46:07.817Z,42.37
2018-09-23T00:48:37.361Z,42.80
2018-09-23T00:51:05.867Z,41.23
2018-09-23T00:53:34.411Z,44.80
2018-09-23T00:56:02.859Z,40.03
2018-09-23T00:58:31.329Z,45.63
2018-09-23T01:01:00.511Z,43.73
2018-09-23T01:03:28.952Z,37.23
2018-09-23T01:05:57.405Z,42.77
2018-09-23T01:08:25.853Z,38.03
2018-09-23T01:10:54.446Z,36.33
2018-09-23T01:13:23.312Z,38.07
2018-09-23T01:15:52.521Z,38.63
2018-09-23T01:18:20.991Z,36.90
2018-09-23T01:20:49.462Z,38.33
2018-09-23T01:23:17.918Z,36.37
2018-09-23T01:25:46.391Z,38.57
2018-09-23T01:28:14.829Z,34.97
2018-09-23T01:30:43.277Z,37.17
2018-09-23T01:33:11.737Z,33.90
2018-09-23T01:35:40.182Z,32.77
2018-09-23T01:38:08.664Z,31.37
2018-09-23T01:40:37.241Z,32.03
2018-09-23T01:43:05.790Z,30.60
2018-09-23T01:45:35.623Z,29.73
2018-09-23T01:48:04.310Z,31.57
2018-09-23T01:50:32.865Z,29.57
2018-09-23T01:53:01.386Z,31.17
2018-09-23T01:55:29.797Z,33.47
2018-09-23T01:57:58.274Z,28.73
2018-09-23T02:00:26.718Z,31.43
2018-09-23T02:02:55.164Z,28.20
2018-09-23T02:05:23.616Z,29.07
2018-09-23T02:07:52.092Z,26.00
2018-09-23T02:10:21.374Z,26.87
2018-09-23T02:12:50.712Z,26.13
2018-09-23T02:15:19.164Z,31.33
2018-09-23T02:17:47.836Z,25.73
2018-09-23T02:20:16.292Z,26.77
2018-09-23T02:22:44.942Z,29.27
2018-09-23T02:25:13.366Z,26.00
2018-09-23T02:27:42.036Z,27.17
2018-09-23T02:30:10.575Z,23.10
2018-09-23T02:32:39.053Z,23.23
2018-09-23T02:35:08.779Z,21.93
2018-09-23T02:37:37.324Z,25.47
2018-09-23T02:40:05.821Z,23.30
2018-09-23T02:42:34.881Z,26.10
2018-09-23T02:45:03.319Z,25.23
2018-09-23T02:47:31.830Z,26.90
2018-09-23T02:50:00.878Z,25.23
2018-09-23T02:52:29.305Z,22.40
2018-09-23T02:54:58.642Z,23.20
2018-09-23T02:57:27.059Z,21.03
2018-09-23T02:59:55.513Z,24.80
2018-09-23T03:02:23.964Z,21.53
2018-09-23T03:04:52.393Z,23.73
2018-09-23T03:07:20.932Z,24.93
2018-09-23T03:09:49.460Z,21.83
2018-09-23T03:12:18.069Z,22.57
2018-09-23T03:14:46.635Z,22.90
2018-09-23T03:17:15.167Z,22.80
2018-09-23T03:19:43.683Z,27.30
2018-09-23T03:22:12.121Z,23.60
2018-09-23T03:24:40.585Z,19.97
2018-09-23T03:27:09.053Z,23.10
2018-09-23T03:29:37.557Z,25.50
2018-09-23T03:32:05.988Z,22.00
2018-09-23T03:34:34.461Z,24.33
2018-09-23T03:37:03.061Z,24.87
2018-09-23T03:39:32.209Z,28.17
2018-09-23T03:42:00.779Z,26.07
2018-09-23T03:44:29.206Z,27.73
2018-09-23T03:46:58.359Z,27.10
2018-09-23T03:49:26.851Z,26.20
2018-09-23T03:51:55.379Z,23.77
2018-09-23T03:54:24.764Z,26.60
2018-09-23T03:56:53.434Z,27.80
2018-09-23T03:59:22.247Z,25.33
2018-09-23T04:01:50.726Z,28.27
2018-09-23T04:04:19.253Z,23.67
2018-09-23T04:06:47.674Z,27.47
2018-09-23T04:09:16.131Z,31.23
2018-09-23T04:11:44.574Z,25.83
2018-09-23T04:14:13.183Z,24.57
2018-09-23T04:16:41.668Z,27.30
2018-09-23T04:19:10.150Z,26.10
2018-09-23T04:21:39.238Z,24.00
2018-09-23T04:24:07.655Z,26.57
2018-09-23T04:26:36.251Z,25.07
2018-09-23T04:29:05.021Z,25.30
2018-09-23T04:31:33.498Z,27.93
2018-09-23T04:34:01.939Z,27.67
2018-09-23T04:36:30.489Z,27.40
2018-09-23T04:38:58.929Z,26.20
2018-09-23T04:41:27.670Z,28.53
2018-09-23T04:43:56.111Z,29.07
2018-09-23T04:46:25.279Z,26.87
2018-09-23T04:48:53.748Z,28.90
2018-09-23T04:51:22.201Z,29.47
2018-09-23T04:53:50.697Z,28.60
2018-09-23T04:56:19.299Z,28.33
2018-09-23T04:58:47.780Z,28.67
2018-09-23T05:01:16.251Z,31.67
2018-09-23T05:03:44.728Z,30.57
2018-09-23T05:06:13.761Z,26.70
2018-09-23T05:08:42.187Z,28.63
2018-09-23T05:11:10.689Z,28.47
2018-09-23T05:13:39.265Z,31.23
2018-09-23T05:16:07.967Z,30.33
2018-09-23T05:18:36.466Z,28.53
2018-09-23T05:21:04.903Z,28.43
2018-09-23T05:23:33.563Z,30.70
2018-09-23T05:26:02.707Z,31.07
2018-09-23T05:28:31.180Z,31.47
2018-09-23T05:30:59.623Z,27.37
2018-09-23T05:33:28.615Z,31.63
2018-09-23T05:35:57.082Z,25.60
2018-09-23T05:38:25.522Z,25.87
2018-09-23T05:40:54.038Z,25.53
2018-09-23T05:43:22.539Z,28.20
2018-09-23T05:45:51.102Z,31.10
2018-09-23T05:48:19.525Z,26.73
2018-09-23T05:50:48.765Z,29.30
2018-09-23T05:53:17.342Z,28.90
2018-09-23T05:55:45.700Z,27.80
2018-09-23T05:58:14.161Z,29.93
2018-09-23T06:00:47.294Z,27.10
2018-09-23T06:03:16.300Z,27.03
2018-09-23T06:05:44.703Z,26.97
2018-09-23T06:08:14.186Z,24.77
2018-09-23T06:10:43.232Z,26.27
2018-09-23T06:13:11.676Z,25.83
2018-09-23T06:15:40.654Z,27.60
2018-09-23T06:18:09.215Z,24.33
2018-09-23T06:20:37.807Z,21.57
2018-09-23T06:23:06.287Z,24.10
2018-09-23T06:25:34.779Z,23.90
2018-09-23T06:28:03.220Z,25.37
2018-09-23T06:30:31.785Z,25.80
2018-09-23T06:33:00.218Z,23.40
2018-09-23T06:35:29.222Z,24.53
2018-09-23T06:37:57.760Z,25.10
2018-09-23T06:40:26.338Z,21.40
2018-09-23T06:42:54.977Z,25.53
2018-09-23T06:45:23.416Z,23.17
2018-09-23T06:47:52.117Z,21.23
2018-09-23T06:50:20.645Z,23.20
2018-09-23T06:52:49.215Z,19.47
2018-09-23T06:55:17.721Z,22.40
2018-09-23T06:57:46.206Z,21.83
2018-09-23T07:00:15.335Z,23.33
2018-09-23T07:02:43.785Z,21.33
2018-09-23T07:05:12.229Z,23.07
2018-09-23T07:07:40.749Z,23.33
2018-09-23T07:10:09.309Z,24.53
2018-09-23T07:12:38.631Z,25.40
2018-09-23T07:15:07.109Z,22.37
2018-09-23T07:17:35.662Z,22.47
2018-09-23T07:20:04.252Z,24.57
2018-09-23T07:22:34.016Z,22.57
2018-09-23T07:25:02.553Z,25.53
2018-09-23T07:27:31.121Z,22.40
2018-09-23T07:29:59.590Z,22.37
2018-09-23T07:32:28.453Z,22.50
2018-09-23T07:34:57.892Z,22.07
2018-09-23T07:37:26.340Z,23.37
2018-09-23T07:39:54.899Z,23.43
2018-09-23T07:42:23.391Z,25.93
2018-09-23T07:44:52.169Z,21.63
2018-09-23T07:47:20.617Z,20.67
2018-09-23T07:49:49.176Z,20.93
2018-09-23T07:52:17.666Z,19.63
2018-09-23T07:54:46.249Z,18.23
2018-09-23T07:57:14.808Z,18.83
2018-09-23T07:59:43.316Z,18.90
2018-09-23T08:02:12.429Z,19.03
2018-09-23T08:04:40.877Z,19.63
2018-09-23T08:07:09.338Z,19.40
2018-09-23T08:09:38.527Z,20.80
2018-09-23T08:12:07.094Z,20.00
2018-09-23T08:14:36.099Z,18.20
2018-09-23T08:17:04.263Z,18.87
2018-09-23T08:19:33.522Z,18.47
2018-09-23T08:22:01.931Z,19.27
2018-09-23T08:24:30.530Z,19.40
2018-09-23T08:26:59.092Z,17.63
2018-09-23T08:29:28.113Z,20.87
2018-09-23T08:31:56.573Z,16.33
2018-09-23T08:34:25.074Z,17.33
2018-09-23T08:36:53.662Z,17.30
2018-09-23T08:39:22.241Z,16.10
2018-09-23T08:41:50.776Z,15.13
2018-09-23T08:44:20.352Z,18.20
2018-09-23T08:46:49.599Z,17.43
2018-09-23T08:49:18.683Z,19.17
2018-09-23T08:51:47.190Z,18.83
2018-09-23T08:54:15.628Z,17.60
2018-09-23T08:56:44.118Z,20.60
2018-09-23T08:59:12.617Z,17.83
2018-09-23T09:01:42.420Z,22.00
2018-09-23T09:04:11.267Z,17.83
2018-09-23T09:06:39.783Z,17.17
2018-09-23T09:09:08.882Z,19.37
2018-09-23T09:11:37.358Z,16.40
2018-09-23T09:14:05.839Z,17.13
2018-09-23T09:16:34.431Z,17.77
2018-09-23T09:19:02.922Z,20.87
2018-09-23T09:21:32.054Z,19.63
2018-09-23T09:24:01.324Z,26.10
2018-09-23T09:26:29.870Z,20.97
2018-09-23T09:28:58.337Z,24.43
2018-09-23T09:31:26.816Z,22.27
2018-09-23T09:33:55.307Z,20.60
2018-09-23T09:36:24.396Z,22.23
2018-09-23T09:38:52.833Z,23.80
2018-09-23T09:41:21.346Z,25.80
2018-09-23T09:43:49.803Z,24.13
2018-09-23T09:46:18.343Z,21.60
2018-09-23T09:48:46.799Z,24.00
2018-09-23T09:51:15.393Z,25.97
2018-09-23T09:53:43.918Z,29.57
2018-09-23T09:56:12.490Z,25.63
2018-09-23T09:58:40.991Z,25.57
2018-09-23T10:01:09.505Z,25.73
2018-09-23T10:03:38.118Z,30.50
2018-09-23T10:06:06.639Z,33.03
2018-09-23T10:08:35.204Z,30.87
2018-09-23T10:11:03.719Z,34.93
2018-09-23T10:13:32.301Z,31.60
2018-09-23T10:16:00.931Z,32.37
2018-09-23T10:18:29.572Z,35.60
2018-09-23T10:20:58.056Z,32.87
2018-09-23T10:23:26.685Z,38.10
2018-09-23T10:25:54.997Z,45.13
2018-09-23T10:28:23.555Z,43.93
2018-09-23T10:30:52.144Z,57.60
2018-09-23T10:33:21.488Z,43.90
2018-09-23T10:35:50.256Z,44.00
2018-09-23T10:38:19.373Z,44.03
2018-09-23T10:40:47.826Z,41.60
2018-09-23T10:43:16.339Z,40.33
2018-09-23T10:45:44.789Z,47.20
2018-09-23T10:48:13.275Z,38.97
2018-09-23T10:50:42.541Z,47.47
2018-09-23T10:53:11.718Z,42.50
2018-09-23T10:55:40.354Z,43.60
2018-09-23T10:58:09.461Z,42.20
2018-09-23T11:00:37.894Z,49.33
2018-09-23T11:03:07.018Z,48.20
2018-09-23T11:05:35.559Z,60.07
2018-09-23T11:08:04.817Z,47.10
2018-09-23T11:10:33.973Z,52.30
2018-09-23T11:13:02.473Z,55.73
2018-09-23T11:15:32.274Z,53.93
2018-09-23T11:18:01.775Z,52.87
2018-09-23T11:20:30.253Z,64.83
2018-09-23T11:22:58.721Z,66.77
2018-09-23T11:25:27.452Z,55.00
2018-09-23T11:27:57.239Z,58.60
2018-09-23T11:30:25.663Z,67.57
2018-09-23T11:32:54.177Z,59.97
2018-09-23T11:35:22.722Z,57.30
2018-09-23T11:37:51.747Z,48.90
2018-09-23T11:40:20.212Z,54.60
2018-09-23T11:42:49.516Z,50.63
2018-09-23T11:45:17.926Z,50.33
2018-09-23T11:47:46.426Z,49.37
2018-09-23T11:50:14.865Z,59.80
2018-09-23T11:52:43.463Z,51.00
2018-09-23T11:55:11.980Z,55.40
2018-09-23T11:57:40.417Z,66.33
2018-09-23T12:00:09.027Z,73.47
2018-09-23T12:02:37.660Z,60.57
2018-09-23T12:05:06.261Z,73.40
2018-09-23T12:07:34.817Z,80.77
2018-09-23T12:10:03.900Z,72.33
2018-09-23T12:12:32.396Z,74.07
2018-09-23T12:15:00.850Z,80.27
2018-09-23T12:17:29.326Z,86.93
2018-09-23T12:19:57.776Z,95.80
2018-09-23T12:22:26.218Z,109.93
2018-09-23T12:24:54.699Z,105.93
2018-09-23T12:27:24.319Z,102.40
2018-09-23T12:29:52.923Z,110.37
2018-09-23T12:32:21.494Z,124.27
2018-09-23T12:34:50.320Z,116.80
2018-09-23T12:37:18.784Z,119.87
2018-09-23T12:39:47.300Z,113.53
2018-09-23T12:42:15.751Z,115.43
2018-09-23T12:44:44.468Z,120.03
2018-09-23T12:47:12.944Z,96.53
2018-09-23T12:49:41.393Z,98.37
2018-09-23T12:52:10.654Z,100.67
2018-09-23T12:54:39.638Z,110.67
2018-09-23T12:57:08.193Z,116.70
2018-09-23T12:59:36.773Z,115.67
2018-09-23T13:02:05.361Z,126.17
2018-09-23T13:04:34.755Z,106.77
2018-09-23T13:07:03.314Z,113.23
2018-09-23T13:09:31.827Z,107.83
2018-09-23T13:12:00.467Z,113.33
2018-09-23T13:14:29.994Z,114.23
2018-09-23T13:16:59.590Z,99.70
2018-09-23T13:19:28.121Z,122.83
2018-09-23T13:21:56.781Z,98.07
2018-09-23T13:24:25.397Z,112.60
2018-09-23T13:26:54.955Z,122.60
2018-09-23T13:29:23.427Z,130.73
2018-09-23T13:31:52.270Z,128.20
2018-09-23T13:34:20.799Z,110.33
2018-09-23T13:36:49.515Z,101.03
2018-09-23T13:39:17.992Z,90.97
2018-09-23T13:41:46.509Z,97.40
2018-09-23T13:44:15.622Z,108.87
2018-09-23T13:46:44.275Z,74.67
2018-09-23T13:49:12.891Z,87.50
2018-09-23T13:51:41.404Z,72.47
2018-09-23T13:54:10.200Z,76.23
2018-09-23T13:56:39.748Z,79.80
2018-09-23T13:59:08.436Z,58.23
2018-09-23T14:01:37.034Z,50.83
2018-09-23T14:04:05.631Z,57.27
2018-09-23T14:06:34.080Z,41.47
2018-09-23T14:09:02.693Z,35.77
2018-09-23T14:11:31.998Z,39.47
2018-09-23T14:14:00.552Z,36.83
2018-09-23T14:16:29.026Z,38.20
2018-09-23T14:18:58.485Z,40.80
2018-09-23T14:21:27.729Z,40.43
2018-09-23T14:23:56.327Z,37.93
2018-09-23T14:26:26.054Z,38.83
2018-09-23T14:28:55.273Z,38.93
2018-09-23T14:31:24.407Z,40.90
2018-09-23T14:33:53.435Z,42.07
2018-09-23T14:36:22.600Z,52.00
2018-09-23T14:38:51.671Z,48.10
2018-09-23T14:41:20.140Z,43.23
2018-09-23T14:43:49.405Z,48.77
2018-09-23T14:46:17.862Z,50.07
2018-09-23T14:48:48.077Z,55.10
2018-09-23T14:51:16.740Z,58.33
2018-09-23T14:53:45.235Z,58.50
2018-09-23T14:56:14.470Z,57.43
2018-09-23T14:58:43.166Z,47.43
2018-09-23T15:01:11.809Z,49.33
2018-09-23T15:03:40.414Z,41.47
2018-09-23T15:06:09.054Z,41.53
2018-09-23T15:08:38.265Z,36.73
2018-09-23T15:11:06.908Z,31.83
2018-09-23T15:13:36.826Z,32.50
2018-09-23T15:16:06.021Z,33.33
2018-09-23T15:18:34.563Z,27.63
2018-09-23T15:21:03.024Z,26.67
2018-09-23T15:23:33.391Z,25.93
2018-09-23T15:26:02.637Z,22.47
2018-09-23T15:28:31.174Z,19.27
2018-09-23T15:30:59.902Z,23.40
2018-09-23T15:33:28.423Z,17.77
2018-09-23T15:35:56.927Z,20.27
2018-09-23T15:38:25.419Z,21.67
2018-09-23T15:40:54.914Z,14.90
2018-09-23T15:43:23.520Z,16.73
2018-09-23T15:45:52.498Z,14.67
2018-09-23T15:48:21.788Z,15.70
2018-09-23T15:50:50.289Z,15.43
2018-09-23T15:53:19.178Z,13.47
2018-09-23T15:55:48.364Z,14.57
2018-09-23T15:58:16.895Z,16.93
2018-09-23T16:00:45.441Z,20.27
2018-09-23T16:03:14.066Z,22.47
2018-09-23T16:05:42.515Z,20.90
2018-09-23T16:08:11.858Z,18.40
2018-09-23T16:10:41.027Z,17.27
2018-09-23T16:13:09.609Z,19.93
2018-09-23T16:15:38.082Z,17.77
2018-09-23T16:18:06.595Z,19.60
2018-09-23T16:20:35.057Z,19.70
2018-09-23T16:23:03.501Z,20.03
2018-09-23T16:25:32.050Z,17.43
2018-09-23T16:28:00.975Z,18.50
2018-09-23T16:30:29.434Z,18.67
2018-09-23T16:32:58.011Z,22.83
2018-09-23T16:35:26.539Z,20.30
2018-09-23T16:37:55.410Z,26.40
2018-09-23T16:40:23.864Z,18.40
2018-09-23T16:42:52.319Z,24.20
2018-09-23T16:45:20.868Z,23.70
2018-09-23T16:47:50.226Z,20.03
2018-09-23T16:50:19.324Z,24.20
2018-09-23T16:52:47.795Z,26.23
2018-09-23T16:55:16.340Z,23.20
2018-09-23T16:57:44.810Z,24.10
2018-09-23T17:00:13.268Z,22.93
2018-09-23T17:02:42.872Z,23.97
2018-09-23T17:05:11.545Z,23.20
2018-09-23T17:07:40.025Z,27.37
2018-09-23T17:10:08.501Z,26.67
2018-09-23T17:12:37.082Z,26.77
2018-09-23T17:15:06.273Z,26.37
2018-09-23T17:17:34.784Z,27.70
2018-09-23T17:20:03.376Z,27.23
2018-09-23T17:22:31.949Z,23.63
2018-09-23T17:25:01.131Z,25.33
2018-09-23T17:27:29.615Z,26.40
2018-09-23T17:29:58.126Z,26.17
2018-09-23T17:32:27.353Z,23.83
2018-09-23T17:34:55.876Z,18.73
2018-09-23T17:37:24.505Z,21.73
2018-09-23T17:39:53.084Z,21.43
2018-09-23T17:42:21.526Z,23.67
2018-09-23T17:44:50.084Z,20.67
2018-09-23T17:47:18.634Z,16.93
2018-09-23T17:49:47.804Z,19.90
2018-09-23T17:52:16.417Z,17.87
2018-09-23T17:54:44.872Z,19.30
2018-09-23T17:57:13.359Z,16.13
2018-09-23T17:59:41.811Z,15.87
2018-09-23T18:02:10.308Z,14.90
2018-09-23T18:04:38.906Z,13.50
2018-09-23T18:07:07.415Z,17.90
2018-09-23T18:09:35.970Z,16.67
2018-09-23T18:12:04.576Z,17.93
2018-09-23T18:14:33.056Z,19.47
2018-09-23T18:17:01.531Z,16.73
2018-09-23T18:19:30.026Z,20.03
2018-09-23T18:21:58.624Z,18.13
2018-09-23T18:24:27.176Z,17.70
2018-09-23T18:26:55.749Z,14.97
2018-09-23T18:29:24.736Z,16.83
2018-09-23T18:31:53.980Z,16.63
2018-09-23T18:34:22.454Z,17.37
2018-09-23T18:36:50.966Z,17.23
2018-09-23T18:39:19.453Z,16.97
2018-09-23T18:41:47.930Z,13.73
2018-09-23T18:44:16.535Z,16.27
2018-09-23T18:46:45.013Z,13.73
2018-09-23T18:49:13.504Z,15.60
2018-09-23T18:51:42.086Z,13.40
2018-09-23T18:54:15.998Z,12.83
2018-09-23T18:56:45.106Z,11.33
2018-09-23T18:59:13.593Z,14.60
2018-09-23T19:01:42.093Z,11.80
2018-09-23T19:04:11.147Z,12.63
2018-09-23T19:06:39.682Z,15.17
2018-09-23T19:09:08.677Z,9.80
2018-09-23T19:11:37.595Z,14.00
2018-09-23T19:14:06.126Z,13.73
2018-09-23T19:16:35.230Z,12.30
2018-09-23T19:19:03.779Z,9.80
2018-09-23T19:21:32.228Z,11.83
2018-09-23T19:24:00.908Z,9.83
2018-09-23T19:26:29.505Z,10.10
2018-09-23T19:28:58.026Z,11.80
2018-09-23T19:31:26.484Z,15.57
2018-09-23T19:33:54.963Z,10.53
2018-09-23T19:36:23.487Z,12.60
2018-09-23T19:38:52.171Z,14.67
2018-09-23T19:41:20.671Z,12.70
2018-09-23T19:43:49.165Z,17.80
2018-09-23T19:46:17.661Z,14.00
2018-09-23T19:48:46.152Z,13.40
2018-09-23T19:51:14.639Z,16.43
2018-09-23T19:53:43.922Z,13.67
2018-09-23T19:56:12.545Z,18.33
2018-09-23T19:58:41.103Z,11.47
2018-09-23T20:01:09.587Z,12.97
2018-09-23T20:03:38.119Z,15.07
2018-09-23T20:06:06.880Z,14.90
2018-09-23T20:08:35.373Z,15.57
2018-09-23T20:11:03.988Z,12.50
2018-09-23T20:13:32.507Z,16.30
2018-09-23T20:16:01.007Z,13.10
2018-09-23T20:18:29.562Z,17.17
2018-09-23T20:20:58.101Z,13.10
2018-09-23T20:23:27.374Z,13.27
2018-09-23T20:25:55.850Z,15.33
2018-09-23T20:28:25.083Z,18.07
2018-09-23T20:30:53.604Z,14.53
2018-09-23T20:33:22.752Z,12.77
2018-09-23T20:35:51.358Z,13.43
2018-09-23T20:38:20.565Z,16.10
2018-09-23T20:40:49.777Z,12.20
2018-09-23T20:43:18.931Z,14.10
2018-09-23T20:45:49.020Z,10.60
2018-09-23T20:48:17.477Z,13.73
2018-09-23T20:50:45.972Z,10.83
2018-09-23T20:53:14.561Z,14.30
2018-09-23T20:55:43.102Z,13.53
2018-09-23T20:58:11.615Z,13.37
2018-09-23T21:00:40.228Z,13.97
2018-09-23T21:03:08.823Z,14.63
2018-09-23T21:05:37.430Z,11.57
2018-09-23T21:08:05.975Z,12.63
2018-09-23T21:10:34.448Z,10.93
2018-09-23T21:13:02.976Z,13.70
2018-09-23T21:15:31.598Z,12.67
2018-09-23T21:18:00.103Z,14.83
2018-09-23T21:20:29.251Z,12.97
2018-09-23T21:22:57.716Z,12.87
2018-09-23T21:25:26.193Z,12.23
2018-09-23T21:27:54.707Z,14.60
2018-09-23T21:30:23.127Z,14.40
2018-09-23T21:32:51.601Z,11.27
2018-09-23T21:35:20.036Z,15.60
2018-09-23T21:37:48.606Z,15.70
2018-09-23T21:40:17.204Z,13.53
2018-09-23T21:42:46.706Z,14.83
2018-09-23T21:45:15.156Z,10.23
2018-09-23T21:47:43.650Z,16.53
2018-09-23T21:50:12.123Z,15.60
2018-09-23T21:52:41.188Z,12.50
2018-09-23T21:55:09.768Z,15.03
2018-09-23T21:57:38.251Z,21.33
2018-09-23T22:00:07.515Z,12.93
2018-09-23T22:02:36.116Z,17.10
2018-09-23T22:05:04.858Z,17.07
2018-09-23T22:07:33.513Z,15.30
2018-09-23T22:10:02.067Z,14.43
2018-09-23T22:12:30.562Z,11.07
2018-09-23T22:14:59.035Z,14.43
2018-09-23T22:17:27.557Z,18.73
2018-09-23T22:19:56.077Z,12.63
2018-09-23T22:22:25.274Z,12.97
2018-09-23T22:24:53.886Z,15.97
2018-09-23T22:27:22.295Z,15.77
2018-09-23T22:29:50.778Z,12.47
2018-09-23T22:32:19.233Z,18.43
2018-09-23T22:34:47.703Z,13.17
2018-09-23T22:37:16.169Z,17.03
2018-09-23T22:39:50.911Z,12.90
2018-09-23T22:42:19.336Z,14.17
2018-09-23T22:44:48.331Z,10.47
2018-09-23T22:47:16.786Z,13.93
2018-09-23T22:49:45.318Z,16.83
2018-09-23T22:52:13.788Z,12.73
2018-09-23T22:54:42.334Z,13.63
2018-09-23T22:57:11.726Z,14.43
2018-09-23T22:59:40.150Z,14.03
2018-09-23T23:02:08.863Z,15.63
2018-09-23T23:04:38.036Z,15.33
2018-09-23T23:07:06.534Z,14.50
2018-09-23T23:09:35.327Z,14.53
2018-09-23T23:12:04.231Z,11.93
2018-09-23T23:14:32.729Z,11.00
2018-09-23T23:17:01.291Z,13.30
2018-09-23T23:19:29.722Z,12.80
2018-09-23T23:21:58.163Z,12.13
2018-09-23T23:24:26.559Z,11.37
2018-09-23T23:26:55.005Z,18.10
2018-09-23T23:29:23.473Z,14.90
2018-09-23T23:31:51.927Z,12.77
2018-09-23T23:34:20.384Z,11.13
2018-09-23T23:36:48.863Z,11.27
2018-09-23T23:39:17.311Z,12.73
2018-09-23T23:41:45.746Z,14.63
2018-09-23T23:44:14.239Z,13.47
2018-09-23T23:46:42.752Z,13.03
2018-09-23T23:49:11.195Z,15.07
2018-09-23T23:51:39.771Z,12.90
2018-09-23T23:54:08.262Z,11.17
2018-09-23T23:56:37.887Z,13.47
2018-09-23T23:59:06.417Z,12.83
